Time;durP1;ratioP1;P1;durP2;ratioP2;P2;SDS_P1;SDS_P2;PMS_P1;PMS_P2;Temp;Humidity;BMP_temperature;BMP_pressure;BME280_temperature;BME280_humidity;BME280_pressure;Samples;Min_cycle;Max_cycle;Signal;HPM_P1;HPM_P2
2021/11/21 00:02:08;;;;;;;13.30;10.20;;;;;;;-128.00;-1.00;-1.00;126567;1285;1005351;-77
2021/11/21 00:05:12;;;;;;;14.60;10.30;;;;;;;-128.00;-1.00;-1.00;126639;1281;1096784;-77
2021/11/21 00:08:15;;;;;;;12.80;9.40;;;;;;;-128.00;-1.00;-1.00;126647;1285;1096082;-75
2021/11/21 00:11:18;;;;;;;10.10;8.40;;;;;;;-128.00;-1.00;-1.00;126648;1285;1003764;-77
2021/11/21 00:14:20;;;;;;;13.70;9.70;;;;;;;-128.00;-1.00;-1.00;126464;1281;1003679;-75
2021/11/21 00:17:23;;;;;;;12.00;9.20;;;;;;;-128.00;-1.00;-1.00;126531;1281;1004853;-79
2021/11/21 00:20:26;;;;;;;12.40;9.60;;;;;;;-128.00;-1.00;-1.00;126488;1285;1072349;-78
2021/11/21 00:23:30;;;;;;;12.30;8.80;;;;;;;-128.00;-1.00;-1.00;126626;1283;1069335;-79
2021/11/21 00:26:33;;;;;;;15.00;9.80;;;;;;;-128.00;-1.00;-1.00;126567;1285;1004944;-78
2021/11/21 00:29:35;;;;;;;12.20;9.10;;;;;;;-128.00;-1.00;-1.00;126644;1285;1004414;-77
2021/11/21 00:32:38;;;;;;;14.30;9.60;;;;;;;-128.00;-1.00;-1.00;126710;1285;1004248;-79
2021/11/21 00:35:41;;;;;;;11.20;8.00;;;;;;;-128.00;-1.00;-1.00;126703;1285;1003564;-76
2021/11/21 00:38:44;;;;;;;11.30;7.70;;;;;;;-128.00;-1.00;-1.00;126500;1285;1073743;-77
2021/11/21 00:41:46;;;;;;;13.90;8.00;;;;;;;-128.00;-1.00;-1.00;126531;1285;1004117;-78
2021/11/21 00:44:49;;;;;;;10.90;8.10;;;;;;;-128.00;-1.00;-1.00;126568;1285;1004429;-78
2021/11/21 00:47:52;;;;;;;11.90;8.40;;;;;;;-128.00;-1.00;-1.00;126530;1285;1005033;-78
2021/11/21 00:50:59;;;;;;;12.00;8.40;;;;;;;-128.00;-1.00;-1.00;126628;1285;1004554;-78
2021/11/21 00:54:08;;;;;;;11.80;7.90;;;;;;;-128.00;-1.00;-1.00;126671;1285;1073083;-78
2021/11/21 00:57:11;;;;;;;11.70;8.80;;;;;;;-128.00;-1.00;-1.00;126674;1285;1075333;-78
2021/11/21 01:00:17;;;;;;;10.90;8.10;;;;;;;-128.00;-1.00;-1.00;126693;1285;1004288;-76
2021/11/21 01:03:21;;;;;;;10.90;7.90;;;;;;;-128.00;-1.00;-1.00;126681;1285;1075412;-77
2021/11/21 01:06:24;;;;;;;9.70;7.00;;;;;;;-128.00;-1.00;-1.00;126616;1285;1077099;-79
2021/11/21 01:09:28;;;;;;;10.90;7.80;;;;;;;-128.00;-1.00;-1.00;126593;1285;1004596;-78
2021/11/21 01:12:31;;;;;;;11.80;8.30;;;;;;;-128.00;-1.00;-1.00;126658;1284;1004933;-77
2021/11/21 01:15:35;;;;;;;12.00;8.40;;;;;;;-128.00;-1.00;-1.00;126575;1285;1004141;-78
2021/11/21 01:18:38;;;;;;;11.50;8.60;;;;;;;-128.00;-1.00;-1.00;126569;1285;1003564;-78
2021/11/21 01:21:42;;;;;;;13.00;8.70;;;;;;;-128.00;-1.00;-1.00;126621;1285;1075995;-78
2021/11/21 01:24:46;;;;;;;11.60;8.90;;;;;;;-128.00;-1.00;-1.00;126557;1285;1003942;-77
2021/11/21 01:27:49;;;;;;;12.50;8.80;;;;;;;-128.00;-1.00;-1.00;126469;1285;1004844;-77
2021/11/21 01:30:53;;;;;;;10.50;7.30;;;;;;;-128.00;-1.00;-1.00;126564;1285;1073863;-76
2021/11/21 01:33:56;;;;;;;10.70;7.70;;;;;;;-128.00;-1.00;-1.00;126623;1285;1005429;-77
2021/11/21 01:36:58;;;;;;;11.40;8.20;;;;;;;-128.00;-1.00;-1.00;126576;1285;1003730;-78
2021/11/21 01:40:03;;;;;;;10.40;7.90;;;;;;;-128.00;-1.00;-1.00;126794;1285;1005391;-77
2021/11/21 01:43:07;;;;;;;11.00;8.00;;;;;;;-128.00;-1.00;-1.00;126667;1285;1003359;-76
2021/11/21 01:46:10;;;;;;;12.70;9.30;;;;;;;-128.00;-1.00;-1.00;126623;1285;1073204;-79
2021/11/21 01:49:12;;;;;;;12.30;8.90;;;;;;;-128.00;-1.00;-1.00;126488;1285;1005227;-78
2021/11/21 01:52:15;;;;;;;12.10;8.30;;;;;;;-128.00;-1.00;-1.00;126475;1285;1004620;-77
2021/11/21 01:55:18;;;;;;;12.50;8.90;;;;;;;-128.00;-1.00;-1.00;126522;1285;1004621;-77
2021/11/21 01:58:21;;;;;;;10.70;7.60;;;;;;;-128.00;-1.00;-1.00;126627;1285;1005384;-76
2021/11/21 02:01:24;;;;;;;10.50;7.70;;;;;;;-128.00;-1.00;-1.00;126618;1285;1004161;-77
2021/11/21 02:04:27;;;;;;;11.70;8.50;;;;;;;-128.00;-1.00;-1.00;126481;1285;1004047;-80
2021/11/21 02:07:30;;;;;;;10.10;7.90;;;;;;;-128.00;-1.00;-1.00;126581;1285;1005218;-80
2021/11/21 02:10:35;;;;;;;12.60;8.90;;;;;;;-128.00;-1.00;-1.00;126788;1285;1004673;-79
2021/11/21 02:13:38;;;;;;;14.20;9.30;;;;;;;-128.00;-1.00;-1.00;126689;1285;1073056;-79
2021/11/21 02:16:41;;;;;;;12.60;9.50;;;;;;;-128.00;-1.00;-1.00;126652;1285;1004083;-78
2021/11/21 02:19:44;;;;;;;12.70;9.00;;;;;;;-128.00;-1.00;-1.00;126653;1285;1004459;-76
2021/11/21 02:22:46;;;;;;;12.90;9.50;;;;;;;-128.00;-1.00;-1.00;126664;1284;1007050;-75
2021/11/21 02:25:50;;;;;;;12.60;8.60;;;;;;;-128.00;-1.00;-1.00;126555;1285;1004260;-75
2021/11/21 02:28:53;;;;;;;10.00;7.30;;;;;;;-128.00;-1.00;-1.00;126455;1285;1097754;-77
2021/11/21 02:31:58;;;;;;;12.30;8.20;;;;;;;-128.00;-1.00;-1.00;126517;1285;1101167;-77
2021/11/21 02:35:01;;;;;;;11.20;8.30;;;;;;;-128.00;-1.00;-1.00;126436;1285;1005089;-79
2021/11/21 02:38:03;;;;;;;12.90;9.00;;;;;;;-128.00;-1.00;-1.00;126535;1285;1005732;-77
2021/11/21 02:41:08;;;;;;;11.10;8.70;;;;;;;-128.00;-1.00;-1.00;126485;1285;1004700;-78
2021/11/21 02:44:11;;;;;;;14.70;9.30;;;;;;;-128.00;-1.00;-1.00;126514;1285;1099161;-78
2021/11/21 02:47:14;;;;;;;14.10;9.60;;;;;;;-128.00;-1.00;-1.00;126554;1285;1004346;-75
2021/11/21 02:50:19;;;;;;;11.90;8.80;;;;;;;-128.00;-1.00;-1.00;126525;1285;1004669;-75
2021/11/21 02:53:27;;;;;;;12.50;9.40;;;;;;;-128.00;-1.00;-1.00;126604;1285;1100550;-76
2021/11/21 02:56:30;;;;;;;12.70;9.10;;;;;;;-128.00;-1.00;-1.00;126562;1285;1098351;-76
2021/11/21 02:59:34;;;;;;;11.40;7.80;;;;;;;-128.00;-1.00;-1.00;126463;1285;1005178;-75
2021/11/21 03:02:39;;;;;;;11.70;8.60;;;;;;;-128.00;-1.00;-1.00;126648;1283;1004564;-75
2021/11/21 03:05:43;;;;;;;14.40;8.90;;;;;;;-128.00;-1.00;-1.00;126534;1285;1101380;-75
2021/11/21 03:08:46;;;;;;;11.90;9.10;;;;;;;-128.00;-1.00;-1.00;126541;1285;1004911;-75
2021/11/21 03:11:52;;;;;;;13.20;9.50;;;;;;;-128.00;-1.00;-1.00;126480;1282;1003826;-75
2021/11/21 03:14:54;;;;;;;12.40;8.70;;;;;;;-128.00;-1.00;-1.00;126507;1285;1100365;-75
2021/11/21 03:17:57;;;;;;;11.70;9.00;;;;;;;-128.00;-1.00;-1.00;126520;1281;1004972;-74
2021/11/21 03:21:00;;;;;;;14.10;10.20;;;;;;;-128.00;-1.00;-1.00;126501;1285;1004821;-75
2021/11/21 03:24:03;;;;;;;12.50;8.90;;;;;;;-128.00;-1.00;-1.00;126686;1285;1003870;-77
2021/11/21 03:27:06;;;;;;;13.30;9.40;;;;;;;-128.00;-1.00;-1.00;126612;1282;1004867;-78
2021/11/21 03:30:11;;;;;;;14.20;8.80;;;;;;;-128.00;-1.00;-1.00;126486;1285;1004705;-76
2021/11/21 03:33:14;;;;;;;11.70;8.20;;;;;;;-128.00;-1.00;-1.00;126604;1285;1100740;-76
2021/11/21 03:36:17;;;;;;;12.60;9.10;;;;;;;-128.00;-1.00;-1.00;126666;1285;1004127;-76
2021/11/21 03:39:19;;;;;;;13.50;9.60;;;;;;;-128.00;-1.00;-1.00;126594;1285;1004995;-76
2021/11/21 03:42:22;;;;;;;12.40;9.10;;;;;;;-128.00;-1.00;-1.00;126459;1281;1004452;-75
2021/11/21 03:45:25;;;;;;;14.50;9.50;;;;;;;-128.00;-1.00;-1.00;126581;1285;1004604;-77
2021/11/21 03:48:27;;;;;;;12.50;9.60;;;;;;;-128.00;-1.00;-1.00;126633;1284;1095647;-77
2021/11/21 03:51:31;;;;;;;13.00;9.70;;;;;;;-128.00;-1.00;-1.00;126534;1285;1005149;-80
2021/11/21 03:54:33;;;;;;;13.30;9.80;;;;;;;-128.00;-1.00;-1.00;126480;1282;1004501;-78
2021/11/21 03:57:36;;;;;;;17.10;9.50;;;;;;;-128.00;-1.00;-1.00;126669;1282;1005194;-79
2021/11/21 04:00:41;;;;;;;12.10;8.70;;;;;;;-128.00;-1.00;-1.00;126626;1284;1004482;-79
2021/11/21 04:03:46;;;;;;;12.10;8.30;;;;;;;-128.00;-1.00;-1.00;126705;1285;1093349;-79
2021/11/21 04:06:50;;;;;;;13.80;9.60;;;;;;;-128.00;-1.00;-1.00;126553;1285;1004544;-80
2021/11/21 04:09:53;;;;;;;12.90;8.80;;;;;;;-128.00;-1.00;-1.00;126559;1281;1097548;-76
2021/11/21 04:12:55;;;;;;;13.90;9.20;;;;;;;-128.00;-1.00;-1.00;126517;1281;1005224;-81
2021/11/21 04:15:58;;;;;;;13.30;9.20;;;;;;;-128.00;-1.00;-1.00;126743;1285;1004511;-79
2021/11/21 04:19:02;;;;;;;12.70;9.50;;;;;;;-128.00;-1.00;-1.00;126610;1284;1004362;-79
2021/11/21 04:22:06;;;;;;;14.60;10.00;;;;;;;-128.00;-1.00;-1.00;126774;1285;1004648;-80
2021/11/21 04:25:10;;;;;;;14.00;9.90;;;;;;;-128.00;-1.00;-1.00;126723;1285;1004804;-80
2021/11/21 04:28:13;;;;;;;13.60;9.80;;;;;;;-128.00;-1.00;-1.00;126656;1284;1094807;-80
2021/11/21 04:31:16;;;;;;;12.50;8.90;;;;;;;-128.00;-1.00;-1.00;126784;1285;1003964;-81
2021/11/21 04:34:18;;;;;;;13.10;8.70;;;;;;;-128.00;-1.00;-1.00;126812;1285;1004133;-80
2021/11/21 04:37:21;;;;;;;14.40;9.40;;;;;;;-128.00;-1.00;-1.00;126780;1285;1004529;-80
2021/11/21 04:40:24;;;;;;;13.60;9.70;;;;;;;-128.00;-1.00;-1.00;126821;1285;1004106;-76
2021/11/21 04:43:26;;;;;;;15.50;10.00;;;;;;;-128.00;-1.00;-1.00;126475;1281;1072929;-77
2021/11/21 04:46:29;;;;;;;13.90;10.30;;;;;;;-128.00;-1.00;-1.00;126563;1285;1004300;-78
2021/11/21 04:49:32;;;;;;;14.30;9.90;;;;;;;-128.00;-1.00;-1.00;126564;1285;1003615;-78
2021/11/21 04:52:35;;;;;;;14.80;10.40;;;;;;;-128.00;-1.00;-1.00;126601;1285;1004645;-77
2021/11/21 04:55:38;;;;;;;14.00;9.60;;;;;;;-128.00;-1.00;-1.00;126484;1285;1007571;-80
2021/11/21 04:58:40;;;;;;;15.50;10.60;;;;;;;-128.00;-1.00;-1.00;126633;1281;1005206;-79
2021/11/21 05:01:45;;;;;;;13.90;9.50;;;;;;;-128.00;-1.00;-1.00;126664;1285;1004566;-79
2021/11/21 05:04:47;;;;;;;13.30;8.50;;;;;;;-128.00;-1.00;-1.00;126709;1282;1075020;-78
2021/11/21 05:07:50;;;;;;;15.20;10.20;;;;;;;-128.00;-1.00;-1.00;126703;1284;1004010;-77
2021/11/21 05:10:53;;;;;;;14.60;10.40;;;;;;;-128.00;-1.00;-1.00;126621;1285;1004334;-78
2021/11/21 05:13:56;;;;;;;16.50;10.70;;;;;;;-128.00;-1.00;-1.00;126540;1281;1005328;-77
2021/11/21 05:16:59;;;;;;;14.40;10.30;;;;;;;-128.00;-1.00;-1.00;126518;1284;1004133;-78
2021/11/21 05:20:02;;;;;;;14.50;10.70;;;;;;;-128.00;-1.00;-1.00;126505;1281;1004844;-78
2021/11/21 05:23:05;;;;;;;14.90;10.30;;;;;;;-128.00;-1.00;-1.00;126517;1285;1004467;-77
2021/11/21 05:26:08;;;;;;;16.90;10.90;;;;;;;-128.00;-1.00;-1.00;126454;1285;1004631;-79
2021/11/21 05:29:11;;;;;;;17.30;11.40;;;;;;;-128.00;-1.00;-1.00;126576;1285;1003407;-78
2021/11/21 05:32:13;;;;;;;34.90;21.80;;;;;;;-128.00;-1.00;-1.00;126471;1285;1004698;-76
2021/11/21 05:35:17;;;;;;;33.70;18.80;;;;;;;-128.00;-1.00;-1.00;126512;1282;1005018;-78
2021/11/21 05:38:20;;;;;;;323.10;157.40;;;;;;;-128.00;-1.00;-1.00;126531;1285;1100330;-78
2021/11/21 05:41:22;;;;;;;140.80;79.00;;;;;;;-128.00;-1.00;-1.00;126489;1285;1004768;-77
2021/11/21 05:44:25;;;;;;;80.10;48.40;;;;;;;-128.00;-1.00;-1.00;126476;1285;1003725;-80
2021/11/21 05:47:28;;;;;;;54.60;36.10;;;;;;;-128.00;-1.00;-1.00;126495;1285;1004775;-80
2021/11/21 05:50:31;;;;;;;108.90;77.80;;;;;;;-128.00;-1.00;-1.00;126612;1281;1004802;-80
2021/11/21 05:53:34;;;;;;;99.60;61.40;;;;;;;-128.00;-1.00;-1.00;126470;1281;1005463;-80
2021/11/21 05:56:36;;;;;;;75.90;44.40;;;;;;;-128.00;-1.00;-1.00;126532;1285;1005384;-79
2021/11/21 05:59:39;;;;;;;42.90;26.20;;;;;;;-128.00;-1.00;-1.00;126458;1285;1095970;-80
2021/11/21 06:02:42;;;;;;;30.30;19.90;;;;;;;-128.00;-1.00;-1.00;126445;1285;1005126;-78
2021/11/21 06:05:45;;;;;;;29.60;20.00;;;;;;;-128.00;-1.00;-1.00;126513;1281;1004630;-81
2021/11/21 06:08:48;;;;;;;20.20;13.80;;;;;;;-128.00;-1.00;-1.00;126540;1285;1005229;-80
2021/11/21 06:11:51;;;;;;;18.30;12.40;;;;;;;-128.00;-1.00;-1.00;126483;1282;1069762;-81
2021/11/21 06:14:54;;;;;;;17.10;12.20;;;;;;;-128.00;-1.00;-1.00;126523;1285;1004547;-78
2021/11/21 06:17:57;;;;;;;20.00;13.20;;;;;;;-128.00;-1.00;-1.00;126593;1283;1003908;-80
2021/11/21 06:21:00;;;;;;;18.10;12.40;;;;;;;-128.00;-1.00;-1.00;126537;1281;1004362;-79
2021/11/21 06:24:03;;;;;;;17.00;11.90;;;;;;;-128.00;-1.00;-1.00;126473;1284;1004995;-80
2021/11/21 06:27:06;;;;;;;16.90;12.00;;;;;;;-128.00;-1.00;-1.00;126555;1285;1004701;-80
2021/11/21 06:30:11;;;;;;;24.70;15.70;;;;;;;-128.00;-1.00;-1.00;126451;1285;1007006;-80
2021/11/21 06:33:14;;;;;;;81.90;44.70;;;;;;;-128.00;-1.00;-1.00;126506;1285;1074576;-79
2021/11/21 06:36:16;;;;;;;486.60;275.80;;;;;;;-128.00;-1.00;-1.00;126756;1285;1004264;-79
2021/11/21 06:39:20;;;;;;;126.00;60.00;;;;;;;-128.00;-1.00;-1.00;126531;1285;1004086;-88
2021/11/21 06:42:22;;;;;;;353.10;172.40;;;;;;;-128.00;-1.00;-1.00;127086;1285;1004423;-80
2021/11/21 06:45:25;;;;;;;88.90;45.70;;;;;;;-128.00;-1.00;-1.00;126887;1281;1004950;-80
2021/11/21 06:48:27;;;;;;;39.20;22.00;;;;;;;-128.00;-1.00;-1.00;126668;1282;1006200;-80
2021/11/21 06:51:30;;;;;;;26.40;16.10;;;;;;;-128.00;-1.00;-1.00;126663;1285;1004400;-82
2021/11/21 06:54:33;;;;;;;20.30;13.90;;;;;;;-128.00;-1.00;-1.00;126773;1281;1075557;-82
2021/11/21 06:57:36;;;;;;;18.60;13.10;;;;;;;-128.00;-1.00;-1.00;126788;1285;1003512;-82
2021/11/21 07:00:39;;;;;;;17.50;10.80;;;;;;;-128.00;-1.00;-1.00;126670;1285;1005082;-82
2021/11/21 07:03:42;;;;;;;15.70;10.30;;;;;;;-128.00;-1.00;-1.00;126719;1284;1004928;-83
2021/11/21 07:06:46;;;;;;;20.00;11.90;;;;;;;-128.00;-1.00;-1.00;126750;1285;1005149;-81
2021/11/21 07:09:49;;;;;;;18.20;12.00;;;;;;;-128.00;-1.00;-1.00;126726;1282;1073945;-82
2021/11/21 07:12:52;;;;;;;17.90;12.50;;;;;;;-128.00;-1.00;-1.00;126659;1284;1004038;-82
2021/11/21 07:15:55;;;;;;;19.00;12.70;;;;;;;-128.00;-1.00;-1.00;126872;1285;1007038;-86
2021/11/21 07:18:58;;;;;;;22.20;15.60;;;;;;;-128.00;-1.00;-1.00;126791;1285;1004868;-85
2021/11/21 07:22:00;;;;;;;19.50;13.50;;;;;;;-128.00;-1.00;-1.00;126633;1281;1004468;-82
2021/11/21 07:25:03;;;;;;;19.20;12.90;;;;;;;-128.00;-1.00;-1.00;126597;1281;1004112;-81
2021/11/21 07:28:07;;;;;;;17.40;11.60;;;;;;;-128.00;-1.00;-1.00;126720;1285;1005245;-81
2021/11/21 07:31:10;;;;;;;15.60;11.60;;;;;;;-128.00;-1.00;-1.00;126603;1285;1004884;-81
2021/11/21 07:34:12;;;;;;;15.20;9.50;;;;;;;-128.00;-1.00;-1.00;126618;1281;1004998;-81
2021/11/21 07:37:15;;;;;;;12.50;8.40;;;;;;;-128.00;-1.00;-1.00;126589;1281;1005041;-79
2021/11/21 07:40:19;;;;;;;12.40;9.50;;;;;;;-128.00;-1.00;-1.00;126528;1285;1004939;-79
2021/11/21 07:43:22;;;;;;;13.20;9.30;;;;;;;-128.00;-1.00;-1.00;126495;1281;1004915;-80
2021/11/21 07:46:26;;;;;;;13.80;9.50;;;;;;;-128.00;-1.00;-1.00;126689;1285;1004306;-80
2021/11/21 07:49:29;;;;;;;15.20;9.70;;;;;;;-128.00;-1.00;-1.00;126763;1282;1003990;-79
2021/11/21 07:52:31;;;;;;;14.40;10.50;;;;;;;-128.00;-1.00;-1.00;126698;1282;1004013;-78
2021/11/21 07:55:34;;;;;;;129.90;80.50;;;;;;;-128.00;-1.00;-1.00;126490;1281;1007144;-77
2021/11/21 07:58:37;;;;;;;85.90;59.60;;;;;;;-128.00;-1.00;-1.00;126676;1285;1003804;-80
2021/11/21 08:01:40;;;;;;;28.30;19.30;;;;;;;-128.00;-1.00;-1.00;126893;1282;1004390;-76
2021/11/21 08:04:43;;;;;;;21.10;15.30;;;;;;;-128.00;-1.00;-1.00;126812;1285;1101035;-80
2021/11/21 08:07:46;;;;;;;18.50;13.30;;;;;;;-128.00;-1.00;-1.00;126640;1281;1005110;-78
2021/11/21 08:10:49;;;;;;;18.20;11.20;;;;;;;-128.00;-1.00;-1.00;126596;1285;1006431;-76
2021/11/21 08:13:51;;;;;;;16.60;10.70;;;;;;;-128.00;-1.00;-1.00;126475;1284;1004555;-76
2021/11/21 08:16:54;;;;;;;16.70;12.00;;;;;;;-128.00;-1.00;-1.00;126654;1281;1004300;-76
2021/11/21 08:19:57;;;;;;;16.80;11.20;;;;;;;-128.00;-1.00;-1.00;126910;1282;1005362;-82
2021/11/21 08:22:59;;;;;;;17.60;12.20;;;;;;;-128.00;-1.00;-1.00;126741;1285;1097010;-79
2021/11/21 08:26:02;;;;;;;18.20;12.50;;;;;;;-128.00;-1.00;-1.00;126670;1281;1004139;-81
2021/11/21 08:29:05;;;;;;;17.80;12.70;;;;;;;-128.00;-1.00;-1.00;126479;1282;1004951;-77
2021/11/21 08:32:09;;;;;;;15.40;11.30;;;;;;;-128.00;-1.00;-1.00;126555;1285;1004831;-80
2021/11/21 08:35:12;;;;;;;17.50;12.10;;;;;;;-128.00;-1.00;-1.00;126834;1284;1004499;-78
2021/11/21 08:38:15;;;;;;;15.00;11.00;;;;;;;-128.00;-1.00;-1.00;126476;1282;1004669;-76
2021/11/21 08:41:17;;;;;;;17.30;11.80;;;;;;;-128.00;-1.00;-1.00;126475;1285;1003393;-77
2021/11/21 08:44:21;;;;;;;18.80;13.00;;;;;;;-128.00;-1.00;-1.00;126515;1282;1005902;-76
2021/11/21 08:47:24;;;;;;;22.80;17.40;;;;;;;-128.00;-1.00;-1.00;126551;1281;1004370;-74
2021/11/21 08:50:27;;;;;;;19.50;13.20;;;;;;;-128.00;-1.00;-1.00;126475;1281;1005137;-75
2021/11/21 08:53:30;;;;;;;26.10;18.60;;;;;;;-128.00;-1.00;-1.00;126483;1281;1005797;-81
2021/11/21 08:56:34;;;;;;;16.70;12.60;;;;;;;-128.00;-1.00;-1.00;126766;1281;1004618;-77
2021/11/21 08:59:37;;;;;;;18.60;11.50;;;;;;;-128.00;-1.00;-1.00;126643;1281;1004943;-81
2021/11/21 09:02:39;;;;;;;14.50;10.80;;;;;;;-128.00;-1.00;-1.00;126681;1284;1004015;-76
2021/11/21 09:05:42;;;;;;;15.80;11.00;;;;;;;-128.00;-1.00;-1.00;126460;1284;1003682;-77
2021/11/21 09:08:45;;;;;;;17.20;10.90;;;;;;;-128.00;-1.00;-1.00;126486;1281;1005405;-77
2021/11/21 09:11:48;;;;;;;15.10;10.60;;;;;;;-128.00;-1.00;-1.00;126520;1282;1003592;-76
2021/11/21 09:14:52;;;;;;;14.20;10.00;;;;;;;-128.00;-1.00;-1.00;126723;1281;1006188;-76
2021/11/21 09:17:55;;;;;;;18.10;12.90;;;;;;;-128.00;-1.00;-1.00;126552;1281;1070081;-77
2021/11/21 09:20:59;;;;;;;15.90;11.70;;;;;;;-128.00;-1.00;-1.00;126564;1281;1005079;-76
2021/11/21 09:24:02;;;;;;;19.10;13.80;;;;;;;-128.00;-1.00;-1.00;126608;1285;1004969;-76
2021/11/21 09:27:06;;;;;;;43.40;38.50;;;;;;;-128.00;-1.00;-1.00;126497;1281;1004913;-75
2021/11/21 09:30:11;;;;;;;23.30;17.40;;;;;;;-128.00;-1.00;-1.00;126625;1281;1069709;-80
2021/11/21 09:33:14;;;;;;;26.20;19.40;;;;;;;-128.00;-1.00;-1.00;126511;1284;1072088;-77
2021/11/21 09:36:18;;;;;;;16.30;11.40;;;;;;;-128.00;-1.00;-1.00;126433;1281;1004209;-78
2021/11/21 09:39:21;;;;;;;17.20;12.50;;;;;;;-128.00;-1.00;-1.00;126562;1284;1003922;-77
2021/11/21 09:42:23;;;;;;;17.90;12.20;;;;;;;-128.00;-1.00;-1.00;126542;1281;1004201;-79
2021/11/21 09:45:26;;;;;;;20.10;13.10;;;;;;;-128.00;-1.00;-1.00;126464;1284;1004769;-79
2021/11/21 09:48:31;;;;;;;18.70;13.00;;;;;;;-128.00;-1.00;-1.00;126521;1281;1004522;-79
2021/11/21 09:51:35;;;;;;;20.20;13.20;;;;;;;-128.00;-1.00;-1.00;126547;1285;1071449;-81
2021/11/21 09:54:37;;;;;;;16.90;12.10;;;;;;;-128.00;-1.00;-1.00;126465;1284;1072811;-78
2021/11/21 09:57:40;;;;;;;18.00;13.00;;;;;;;-128.00;-1.00;-1.00;126708;1281;1005028;-80
2021/11/21 10:00:43;;;;;;;23.50;14.40;;;;;;;-128.00;-1.00;-1.00;126707;1281;1005028;-80
2021/11/21 10:03:46;;;;;;;18.40;12.60;;;;;;;-128.00;-1.00;-1.00;126612;1285;1004743;-76
2021/11/21 10:06:49;;;;;;;18.70;13.00;;;;;;;-128.00;-1.00;-1.00;126648;1282;1003786;-78
2021/11/21 10:09:53;;;;;;;19.80;12.30;;;;;;;-128.00;-1.00;-1.00;126547;1281;1004351;-81
2021/11/21 10:12:56;;;;;;;20.60;12.50;;;;;;;-128.00;-1.00;-1.00;126569;1285;1005366;-80
2021/11/21 10:16:16;;;;;;;17.10;11.10;;;;;;;-128.00;-1.00;-1.00;127749;1283;1004386;-76
2021/11/21 10:19:19;;;;;;;17.40;10.30;;;;;;;-128.00;-1.00;-1.00;126523;1285;1075158;-74
2021/11/21 10:22:22;;;;;;;18.30;11.10;;;;;;;-128.00;-1.00;-1.00;126463;1285;1004417;-73
2021/11/21 10:25:45;;;;;;;19.40;15.00;;;;;;;-128.00;-1.00;-1.00;126424;1285;1004626;-78
2021/11/21 10:28:48;;;;;;;17.10;11.40;;;;;;;-128.00;-1.00;-1.00;126532;1283;1070576;-83
2021/11/21 10:31:51;;;;;;;16.10;11.40;;;;;;;-128.00;-1.00;-1.00;126728;1285;1004178;-75
2021/11/21 10:34:56;;;;;;;16.40;11.80;;;;;;;-128.00;-1.00;-1.00;126584;1282;1004674;-82
2021/11/21 10:38:00;;;;;;;16.30;11.60;;;;;;;-128.00;-1.00;-1.00;126695;1281;1073119;-75
2021/11/21 10:41:07;;;;;;;18.40;12.00;;;;;;;-128.00;-1.00;-1.00;126623;1281;1005219;-79
2021/11/21 10:44:12;;;;;;;16.00;11.20;;;;;;;-128.00;-1.00;-1.00;126528;1281;1069652;-77
2021/11/21 10:47:15;;;;;;;15.30;11.30;;;;;;;-128.00;-1.00;-1.00;126639;1282;1070663;-76
2021/11/21 10:50:29;;;;;;;17.30;11.50;;;;;;;-128.00;-1.00;-1.00;126832;1282;1006838;-75
2021/11/21 10:53:34;;;;;;;16.50;11.30;;;;;;;-128.00;-1.00;-1.00;126636;1281;1069207;-78
2021/11/21 10:56:46;;;;;;;16.00;11.60;;;;;;;-128.00;-1.00;-1.00;126661;1282;1069556;-78
2021/11/21 10:59:51;;;;;;;17.90;12.10;;;;;;;-128.00;-1.00;-1.00;126621;1281;1073419;-79
2021/11/21 11:02:54;;;;;;;15.50;10.50;;;;;;;-128.00;-1.00;-1.00;126656;1281;1075051;-80
2021/11/21 11:05:56;;;;;;;16.30;10.80;;;;;;;-128.00;-1.00;-1.00;126551;1281;1003993;-79
2021/11/21 11:09:14;;;;;;;16.20;10.80;;;;;;;-128.00;-1.00;-1.00;126596;1281;1004001;-79
2021/11/21 11:12:17;;;;;;;17.20;11.70;;;;;;;-128.00;-1.00;-1.00;126519;1281;1069820;-80
2021/11/21 11:15:20;;;;;;;18.60;12.20;;;;;;;-128.00;-1.00;-1.00;126878;1281;1004093;-80
2021/11/21 11:18:26;;;;;;;16.80;11.90;;;;;;;-128.00;-1.00;-1.00;126703;1281;1004006;-82
2021/11/21 11:21:29;;;;;;;17.50;12.30;;;;;;;-128.00;-1.00;-1.00;126699;1285;1073156;-83
2021/11/21 11:24:41;;;;;;;18.40;12.40;;;;;;;-128.00;-1.00;-1.00;126744;1282;1073153;-78
2021/11/21 11:27:50;;;;;;;16.70;12.00;;;;;;;-128.00;-1.00;-1.00;126719;1281;1070734;-77
2021/11/21 11:30:54;;;;;;;20.90;12.80;;;;;;;-128.00;-1.00;-1.00;126714;1281;1069483;-77
2021/11/21 11:33:59;;;;;;;19.50;12.60;;;;;;;-128.00;-1.00;-1.00;126757;1281;1069031;-79
2021/11/21 11:37:03;;;;;;;21.30;13.60;;;;;;;-128.00;-1.00;-1.00;126604;1285;1070166;-75
2021/11/21 11:40:41;;;;;;;23.20;14.80;;;;;;;-128.00;-1.00;-1.00;126752;1281;1073261;-78
2021/11/21 11:43:47;;;;;;;21.90;13.70;;;;;;;-128.00;-1.00;-1.00;126785;1284;1072720;-76
2021/11/21 11:46:50;;;;;;;23.50;14.70;;;;;;;-128.00;-1.00;-1.00;126634;1286;1069717;-79
2021/11/21 11:49:53;;;;;;;25.00;17.80;;;;;;;-128.00;-1.00;-1.00;127407;1285;1004903;-75
2021/11/21 11:52:58;;;;;;;24.80;15.10;;;;;;;-128.00;-1.00;-1.00;126838;1281;1005199;-81
2021/11/21 11:56:14;;;;;;;24.90;15.90;;;;;;;-128.00;-1.00;-1.00;126576;1285;1069031;-76
2021/11/21 11:59:26;;;;;;;25.30;15.40;;;;;;;-128.00;-1.00;-1.00;126570;1281;1069561;-79
2021/11/21 12:02:41;;;;;;;23.10;15.60;;;;;;;-128.00;-1.00;-1.00;126532;1285;1070241;-78
2021/11/21 12:05:44;;;;;;;23.70;15.20;;;;;;;-128.00;-1.00;-1.00;126745;1281;1071925;-79
2021/11/21 12:09:20;;;;;;;25.60;16.60;;;;;;;-128.00;-1.00;-1.00;126752;1281;1003825;-79
2021/11/21 12:12:43;;;;;;;24.40;15.70;;;;;;;-128.00;-1.00;-1.00;126745;1281;1069288;-80
2021/11/21 12:15:51;;;;;;;25.60;16.10;;;;;;;-128.00;-1.00;-1.00;126638;1281;1073334;-78
2021/11/21 12:18:58;;;;;;;25.60;14.80;;;;;;;-128.00;-1.00;-1.00;126575;1281;1073040;-77
2021/11/21 12:22:01;;;;;;;23.60;14.30;;;;;;;-128.00;-1.00;-1.00;126549;1285;1071727;-77
2021/11/21 12:25:06;;;;;;;23.30;14.60;;;;;;;-128.00;-1.00;-1.00;126754;1285;1004881;-77
2021/11/21 12:28:10;;;;;;;25.80;15.00;;;;;;;-128.00;-1.00;-1.00;126796;1281;1072459;-78
2021/11/21 12:31:30;;;;;;;24.20;15.50;;;;;;;-128.00;-1.00;-1.00;126711;1281;1004407;-74
2021/11/21 12:34:39;;;;;;;30.20;17.00;;;;;;;-128.00;-1.00;-1.00;126499;1287;1069435;-74
2021/11/21 12:37:44;;;;;;;30.30;18.00;;;;;;;-128.00;-1.00;-1.00;126769;1281;1069606;-76
2021/11/21 12:40:52;;;;;;;24.50;16.10;;;;;;;-128.00;-1.00;-1.00;126584;1285;1069617;-75
2021/11/21 12:43:54;;;;;;;39.20;28.70;;;;;;;-128.00;-1.00;-1.00;126378;1275;1071076;-78
2021/11/21 12:46:59;;;;;;;34.50;19.20;;;;;;;-128.00;-1.00;-1.00;126498;1281;1004151;-78
2021/11/21 12:50:03;;;;;;;31.40;18.20;;;;;;;-128.00;-1.00;-1.00;126445;1286;1071991;-77
2021/11/21 12:53:07;;;;;;;46.60;20.30;;;;;;;-128.00;-1.00;-1.00;126865;1281;1005117;-76
2021/11/21 12:56:17;;;;;;;27.80;16.50;;;;;;;-128.00;-1.00;-1.00;126599;1285;1074052;-76
2021/11/21 12:59:20;;;;;;;22.70;14.50;;;;;;;-128.00;-1.00;-1.00;126721;1282;1075596;-77
2021/11/21 13:02:26;;;;;;;24.00;14.20;;;;;;;-128.00;-1.00;-1.00;126517;1281;1005211;-75
2021/11/21 13:05:29;;;;;;;33.60;21.90;;;;;;;-128.00;-1.00;-1.00;126788;1281;1070180;-76
2021/11/21 13:08:33;;;;;;;34.10;18.10;;;;;;;-128.00;-1.00;-1.00;126645;1281;1005548;-77
2021/11/21 13:11:36;;;;;;;40.90;19.80;;;;;;;-128.00;-1.00;-1.00;126487;1285;1070671;-81
2021/11/21 13:14:57;;;;;;;29.70;17.10;;;;;;;-128.00;-1.00;-1.00;126836;1284;1005055;-80
2021/11/21 13:18:09;;;;;;;27.90;15.60;;;;;;;-128.00;-1.00;-1.00;126698;1284;1070711;-81
2021/11/21 13:21:18;;;;;;;30.50;17.90;;;;;;;-128.00;-1.00;-1.00;126744;1286;1070856;-81
2021/11/21 13:24:21;;;;;;;30.30;17.30;;;;;;;-128.00;-1.00;-1.00;126733;1285;1072558;-82
2021/11/21 13:27:23;;;;;;;27.40;17.20;;;;;;;-128.00;-1.00;-1.00;126870;1281;1004693;-83
2021/11/21 13:30:27;;;;;;;48.90;27.00;;;;;;;-128.00;-1.00;-1.00;126807;1285;1004521;-82
2021/11/21 13:33:32;;;;;;;31.50;16.10;;;;;;;-128.00;-1.00;-1.00;126751;1281;1005433;-80
2021/11/21 13:36:38;;;;;;;29.30;15.40;;;;;;;-128.00;-1.00;-1.00;127652;1283;1073045;-75
2021/11/21 13:57:59;;;;;;;31.10;21.00;;;;;;;9.96;68.78;99280.59;123821;1352;648823;-78
2021/11/21 14:01:17;;;;;;;34.90;18.80;;;;;;;9.96;68.79;99281.29;125928;1319;302251;-81
2021/11/21 14:04:30;;;;;;;37.60;20.10;;;;;;;9.91;68.75;99285.91;125951;1317;108741;-80
2021/11/21 14:07:47;;;;;;;27.50;15.90;;;;;;;9.80;69.02;99289.74;126039;1320;108954;-78
2021/11/21 14:10:52;;;;;;;28.10;18.10;;;;;;;9.78;69.02;99291.45;126014;1323;107627;-78